Terminal Aerodrome Forecast
Issued by NWS

Home | Current Version | Previous Version | Text Only | Print | Product List | Glossary On
Versions: 1 2 3 4 5 6 7 8 9 10 11 12 13 14 15 16
000
FTUS46 KEKA 031128
TAFCEC
TAF
KCEC 031128Z 0312/0412 VRB03KT 6SM BR FEW007
     FM031500 31008KT P6SM SKC
     FM031800 33013G20KT P6SM SKC
     FM040400 36008KT P6SM SKC
     FM040900 03004KT P6SM FEW007=

USA.gov is the U.S. government's official web portal to all federal, state and local government web resources and services.